Time;durP1;ratioP1;P1;durP2;ratioP2;P2;SDS_P1;SDS_P2;PMS_P1;PMS_P2;Temp;Humidity;BMP_temperature;BMP_pressure;BME280_temperature;BME280_humidity;BME280_pressure;Samples;Min_cycle;Max_cycle;Signal;HPM_P1;HPM_P2
2023/10/12 00:02:28;;;;;;;14.10;6.60;;;;;;;15.47;91.57;98989.55;437044;1255;140020;-62
2023/10/12 00:12:35;;;;;;;8.70;6.80;;;;;;;15.50;91.67;98981.46;435730;1254;139474;-63
2023/10/12 00:22:41;;;;;;;13.30;6.80;;;;;;;15.57;91.76;98977.09;436162;1253;138873;-62
2023/10/12 00:32:47;;;;;;;7.80;6.00;;;;;;;15.60;91.52;98969.23;435896;1255;139238;-62
2023/10/12 00:42:56;;;;;;;11.00;7.70;;;;;;;15.59;91.53;98969.50;436521;1251;138831;-63
2023/10/12 00:53:14;;;;;;;11.00;6.50;;;;;;;15.60;91.44;98961.87;436026;1254;139214;-61
2023/10/12 01:03:35;;;;;;;8.90;5.60;;;;;;;15.54;91.32;98947.16;436054;1253;140163;-63
2023/10/12 01:13:43;;;;;;;12.20;6.50;;;;;;;15.58;91.52;98938.34;435887;1255;140502;-62
2023/10/12 01:23:50;;;;;;;11.00;5.70;;;;;;;15.56;91.24;98929.40;436030;1255;139337;-62
2023/10/12 01:33:57;;;;;;;12.50;5.50;;;;;;;15.48;91.26;98918.86;436197;1255;138957;-63
2023/10/12 01:44:10;;;;;;;6.90;5.10;;;;;;;15.44;91.27;98914.31;436134;1251;139104;-63
2023/10/12 01:54:22;;;;;;;9.70;5.00;;;;;;;15.43;91.27;98910.52;436184;1254;139892;-63
2023/10/12 02:04:28;;;;;;;10.20;5.70;;;;;;;15.36;91.20;98912.20;436345;1253;140951;-63
2023/10/12 02:14:34;;;;;;;15.70;6.20;;;;;;;15.33;91.21;98901.23;435910;1255;138912;-63
2023/10/12 02:24:42;;;;;;;13.50;6.20;;;;;;;15.36;91.30;98897.39;435795;1254;139452;-63
2023/10/12 02:34:53;;;;;;;10.30;4.90;;;;;;;15.40;91.38;98900.73;436152;1254;139926;-62
2023/10/12 02:45:09;;;;;;;14.20;5.70;;;;;;;15.44;91.25;98897.04;435964;1255;138918;-63
2023/10/12 02:55:24;;;;;;;9.60;4.80;;;;;;;15.43;91.11;98891.65;436346;1255;139125;-63
2023/10/12 03:05:33;;;;;;;8.80;5.60;;;;;;;15.38;90.95;98884.90;435987;1255;139728;-62
2023/10/12 03:15:42;;;;;;;8.10;4.80;;;;;;;15.29;91.01;98885.14;437323;1255;139324;-63
2023/10/12 03:25:51;;;;;;;8.20;5.90;;;;;;;15.29;91.31;98880.08;436196;1255;138897;-63
2023/10/12 03:36:12;;;;;;;8.30;5.00;;;;;;;15.46;91.52;98871.73;436206;1255;140181;-63
2023/10/12 03:46:28;;;;;;;13.30;4.90;;;;;;;15.64;91.42;98878.36;436203;1254;139737;-63
2023/10/12 03:56:39;;;;;;;9.30;6.10;;;;;;;15.76;91.06;98875.28;435946;1255;139605;-63
2023/10/12 04:07:15;;;;;;;11.30;5.10;;;;;;;15.70;90.65;98868.04;435658;1256;138846;-62
2023/10/12 04:17:41;;;;;;;10.20;5.90;;;;;;;15.55;90.65;98856.41;435761;1254;141125;-63
2023/10/12 04:27:50;;;;;;;9.00;5.70;;;;;;;15.42;90.49;98837.02;436404;1256;139194;-63
2023/10/12 04:38:01;;;;;;;10.90;5.00;;;;;;;15.27;90.68;98829.45;435576;1253;138730;-62
2023/10/12 04:48:18;;;;;;;11.90;5.30;;;;;;;15.18;90.79;98829.60;436496;1254;140420;-64
2023/10/12 04:58:32;;;;;;;7.60;5.00;;;;;;;15.13;91.04;98823.91;436015;1255;139473;-62
2023/10/12 05:08:40;;;;;;;9.00;5.60;;;;;;;15.11;91.08;98833.39;436096;1255;138915;-63
2023/10/12 05:18:47;;;;;;;7.10;5.60;;;;;;;15.06;91.09;98840.13;435735;1256;138619;-62
2023/10/12 05:29:17;;;;;;;8.20;4.30;;;;;;;15.15;91.26;98843.67;436342;1256;138779;-62
2023/10/12 05:39:27;;;;;;;13.20;5.70;;;;;;;15.29;91.32;98857.89;437768;1256;140219;-61
2023/10/12 05:49:33;;;;;;;9.40;6.20;;;;;;;15.48;91.05;98874.05;436407;1252;139353;-61
2023/10/12 05:59:39;;;;;;;7.60;4.90;;;;;;;15.70;90.65;98884.68;435711;1254;138939;-61
2023/10/12 06:09:45;;;;;;;7.20;5.00;;;;;;;16.00;90.06;98883.18;436060;1255;138923;-61
2023/10/12 06:19:54;;;;;;;9.90;5.20;;;;;;;16.36;89.41;98883.92;435797;1256;139312;-61
2023/10/12 06:30:16;;;;;;;9.90;5.80;;;;;;;16.87;88.62;98900.58;435895;1256;139780;-60
2023/10/12 06:40:47;;;;;;;10.00;4.50;;;;;;;17.87;87.24;98907.95;435773;1251;138714;-62
2023/10/12 06:51:02;;;;;;;10.80;4.40;;;;;;;19.25;85.76;98923.73;435895;1256;139885;-68
2023/10/12 07:01:18;;;;;;;9.20;4.10;;;;;;;20.80;82.20;98933.44;438271;1255;138861;-65
2023/10/12 07:11:25;;;;;;;9.00;4.60;;;;;;;22.50;78.61;98943.48;436124;1256;138423;-64
2023/10/12 07:21:37;;;;;;;8.30;3.70;;;;;;;23.60;74.72;98935.65;436391;1255;138834;-66
2023/10/12 07:31:48;;;;;;;7.70;4.10;;;;;;;23.39;71.02;98949.11;437314;1257;138138;-68
2023/10/12 07:41:59;;;;;;;9.00;4.70;;;;;;;22.55;71.20;98956.72;438154;1256;138305;-67
2023/10/12 07:52:22;;;;;;;10.50;4.10;;;;;;;22.95;70.44;98969.63;437660;1251;138259;-74
2023/10/12 08:03:05;;;;;;;7.70;3.60;;;;;;;22.49;69.55;98996.66;437716;1255;138149;-76
2023/10/12 08:13:26;;;;;;;11.70;5.00;;;;;;;22.60;69.62;98995.25;438539;1254;138562;-70
2023/10/12 08:23:32;;;;;;;9.40;3.90;;;;;;;22.75;68.75;98997.95;440133;1251;138153;-73
2023/10/12 08:33:58;;;;;;;6.60;4.10;;;;;;;23.81;68.33;99002.61;436647;1255;138780;-76
2023/10/12 08:44:05;;;;;;;7.10;3.20;;;;;;;24.55;65.27;99012.48;438620;1251;138086;-76
2023/10/12 08:54:16;;;;;;;;;;;;;;;24.03;64.15;99023.29;438061;1256;139026;-65
2023/10/12 09:04:29;;;;;;;25.50;13.80;;;;;;;24.41;64.08;99038.20;442341;1251;124952;-73
2023/10/12 09:14:35;;;;;;;7.00;3.70;;;;;;;24.61;62.54;99046.89;436141;1251;139072;-69
2023/10/12 09:24:50;;;;;;;10.10;4.30;;;;;;;24.06;61.60;99055.64;435948;1251;138652;-68
2023/10/12 09:35:12;;;;;;;9.20;4.30;;;;;;;22.81;61.93;99080.91;437523;1255;138476;-68
2023/10/12 09:45:20;;;;;;;7.80;4.50;;;;;;;21.55;64.13;99120.35;438898;1251;138029;-71
2023/10/12 09:56:02;;;;;;;10.80;4.60;;;;;;;20.44;67.05;99157.72;438649;1251;138480;-68
2023/10/12 10:06:20;;;;;;;13.30;6.60;;;;;;;19.47;69.91;99165.79;438278;1251;139421;-72
2023/10/12 10:16:42;;;;;;;8.40;4.80;;;;;;;18.86;72.95;99158.19;439469;1256;138658;-71
2023/10/12 10:26:57;;;;;;;9.00;5.60;;;;;;;18.28;75.14;99158.20;436680;1254;138895;-69
2023/10/12 10:37:04;;;;;;;12.10;6.70;;;;;;;17.65;77.52;99148.17;438454;1251;139052;-72
2023/10/12 10:47:15;;;;;;;14.20;7.60;;;;;;;17.02;79.55;99148.00;438955;1251;139677;-66
2023/10/12 10:57:24;;;;;;;9.90;5.80;;;;;;;16.56;82.06;99148.91;437012;1251;140661;-75
2023/10/12 11:07:31;;;;;;;8.20;4.70;;;;;;;16.30;83.61;99140.25;439396;1251;139476;-64
2023/10/12 11:17:49;;;;;;;6.90;5.00;;;;;;;16.22;85.66;99139.02;436095;1256;138950;-69
2023/10/12 11:27:55;;;;;;;8.50;4.20;;;;;;;16.40;86.34;99132.55;438761;1256;138843;-64
2023/10/12 11:38:03;;;;;;;6.90;4.40;;;;;;;16.25;86.95;99131.84;436417;1251;138932;-62
2023/10/12 11:48:24;;;;;;;11.60;5.20;;;;;;;16.14;88.00;99143.48;435876;1255;139094;-65
2023/10/12 11:58:29;;;;;;;9.50;5.30;;;;;;;16.01;89.30;99147.13;435905;1251;140762;-66
2023/10/12 12:08:37;;;;;;;8.00;5.20;;;;;;;15.93;90.39;99147.90;436383;1255;140297;-67
2023/10/12 12:18:43;;;;;;;12.80;6.00;;;;;;;15.95;91.08;99150.41;435844;1253;139380;-66
2023/10/12 12:29:02;;;;;;;9.20;6.30;;;;;;;15.86;91.65;99160.02;435934;1251;140070;-60
2023/10/12 12:39:11;;;;;;;10.00;6.30;;;;;;;15.71;92.56;99160.30;435945;1251;138768;-61
2023/10/12 12:49:16;;;;;;;9.30;6.10;;;;;;;15.63;93.34;99159.48;436654;1251;139234;-60
2023/10/12 12:59:24;;;;;;;13.50;10.20;;;;;;;15.63;94.16;99154.52;435757;1256;139851;-60
2023/10/12 13:09:30;;;;;;;13.10;8.00;;;;;;;15.67;94.92;99134.98;436658;1251;139162;-59
2023/10/12 13:19:35;;;;;;;12.20;7.20;;;;;;;15.73;94.94;99156.29;436134;1251;139455;-59
2023/10/12 13:29:43;;;;;;;13.10;7.20;;;;;;;15.59;95.37;99160.93;435842;1251;140778;-59
2023/10/12 13:39:49;;;;;;;16.90;7.90;;;;;;;15.58;95.81;99172.49;436187;1251;140902;-59
2023/10/12 13:49:56;;;;;;;11.60;6.60;;;;;;;15.50;96.16;99182.31;435963;1256;139153;-60
2023/10/12 14:00:04;;;;;;;7.70;6.10;;;;;;;15.51;96.69;99185.98;436274;1251;140285;-59
2023/10/12 14:10:12;;;;;;;;;;;;;;;15.45;96.76;99184.73;436200;1254;141001;-59
2023/10/12 14:20:20;;;;;;;10.80;5.70;;;;;;;15.41;97.22;99191.59;436128;1251;125405;-68
2023/10/12 14:30:28;;;;;;;;;;;;;;;15.37;97.43;99193.39;437959;1252;139001;-70
2023/10/12 14:40:32;;;;;;;;;;;;;;;15.31;97.76;99195.31;438449;1253;125752;-66
2023/10/12 14:50:43;;;;;;;9.90;6.40;;;;;;;15.22;97.94;99190.27;436025;1250;125180;-66
2023/10/12 15:00:50;;;;;;;10.00;6.50;;;;;;;15.07;98.41;99194.29;435946;1252;139438;-66
2023/10/12 15:10:59;;;;;;;8.50;6.80;;;;;;;14.99;98.85;99211.56;436661;1255;139165;-66
2023/10/12 15:21:10;;;;;;;8.20;6.20;;;;;;;14.87;99.35;99207.82;436529;1251;138750;-66
2023/10/12 15:31:35;;;;;;;6.40;5.60;;;;;;;14.69;99.86;99207.42;435989;1251;139447;-65
2023/10/12 15:41:41;;;;;;;8.60;5.70;;;;;;;14.63;100.00;99219.26;436030;1251;139070;-64
2023/10/12 15:51:47;;;;;;;11.00;6.00;;;;;;;14.61;100.00;99227.15;436043;1251;139866;-66
2023/10/12 16:01:53;;;;;;;8.00;6.70;;;;;;;14.57;100.00;99223.79;435750;1255;140310;-66
2023/10/12 16:11:59;;;;;;;7.90;7.10;;;;;;;14.46;100.00;99217.52;435523;1251;139294;-66
2023/10/12 16:22:08;;;;;;;10.20;7.80;;;;;;;14.41;100.00;99224.77;436082;1255;138814;-66
2023/10/12 16:32:16;;;;;;;11.00;7.70;;;;;;;14.39;100.00;99226.41;435998;1256;139687;-65
2023/10/12 16:42:22;;;;;;;7.10;5.60;;;;;;;14.35;100.00;99250.50;436069;1251;139481;-66
2023/10/12 16:52:28;;;;;;;9.00;5.20;;;;;;;14.13;100.00;99256.91;436010;1251;139345;-66
2023/10/12 17:02:34;;;;;;;7.10;4.70;;;;;;;13.91;100.00;99259.62;436100;1251;139369;-65
2023/10/12 17:12:40;;;;;;;5.50;4.50;;;;;;;13.56;100.00;99284.27;435856;1255;138927;-65
2023/10/12 17:22:46;;;;;;;5.90;4.10;;;;;;;13.28;100.00;99295.94;436155;1256;139017;-65
2023/10/12 17:32:52;;;;;;;8.50;5.40;;;;;;;13.25;100.00;99315.23;436631;1254;139074;-66
2023/10/12 17:42:59;;;;;;;5.70;4.40;;;;;;;13.23;100.00;99323.63;436560;1254;140495;-67
2023/10/12 17:53:05;;;;;;;8.60;5.20;;;;;;;13.17;100.00;99324.58;436080;1255;138945;-66
2023/10/12 18:03:15;;;;;;;9.70;5.30;;;;;;;13.07;100.00;99322.08;436397;1251;140846;-66
2023/10/12 18:13:22;;;;;;;6.80;5.50;;;;;;;12.82;100.00;99334.37;436406;1256;139104;-67
2023/10/12 18:23:29;;;;;;;7.80;6.30;;;;;;;12.82;100.00;99341.73;436614;1254;140010;-66
2023/10/12 18:33:36;;;;;;;10.40;8.00;;;;;;;12.79;100.00;99346.70;436093;1251;140010;-66
2023/10/12 18:43:42;;;;;;;8.10;6.30;;;;;;;12.78;100.00;99352.59;436301;1251;139607;-65
2023/10/12 18:53:50;;;;;;;8.30;5.80;;;;;;;12.75;100.00;99364.72;436235;1255;141480;-66
2023/10/12 19:03:57;;;;;;;7.90;5.00;;;;;;;12.72;100.00;99371.48;436565;1256;139125;-66
2023/10/12 19:14:06;;;;;;;6.60;4.60;;;;;;;12.70;100.00;99373.73;436098;1253;140381;-66
2023/10/12 19:24:12;;;;;;;9.50;5.90;;;;;;;12.65;100.00;99379.91;436150;1251;139075;-66
2023/10/12 19:34:18;;;;;;;11.40;6.70;;;;;;;12.63;100.00;99389.16;435939;1255;332357;-66
2023/10/12 19:44:24;;;;;;;7.40;5.10;;;;;;;12.64;100.00;99394.39;436308;1255;139237;-66
2023/10/12 19:54:30;;;;;;;7.30;5.00;;;;;;;12.68;100.00;99398.67;436341;1253;141107;-66
2023/10/12 20:04:36;;;;;;;7.30;5.20;;;;;;;12.72;100.00;99405.20;436248;1251;140644;-67
2023/10/12 20:14:43;;;;;;;6.50;5.60;;;;;;;12.71;100.00;99398.07;435814;1255;140131;-65
2023/10/12 20:24:49;;;;;;;10.60;5.50;;;;;;;12.70;100.00;99402.18;436487;1255;139049;-66
2023/10/12 20:34:55;;;;;;;9.90;4.60;;;;;;;12.67;100.00;99400.61;435776;1255;141669;-66
2023/10/12 20:45:01;;;;;;;9.80;4.20;;;;;;;12.63;100.00;99401.32;436036;1255;139412;-62
2023/10/12 20:55:11;;;;;;;13.10;5.90;;;;;;;12.66;100.00;99408.13;436004;1251;140007;-62
2023/10/12 21:05:23;;;;;;;8.00;5.40;;;;;;;12.71;100.00;99406.33;436234;1255;140615;-61
2023/10/12 21:15:29;;;;;;;6.30;4.70;;;;;;;12.70;100.00;99406.02;435898;1253;139224;-62
2023/10/12 21:25:35;;;;;;;8.90;5.40;;;;;;;12.72;100.00;99413.97;435886;1255;139504;-61
2023/10/12 21:35:47;;;;;;;9.70;6.90;;;;;;;12.71;100.00;99415.84;435946;1255;139686;-60
2023/10/12 21:45:57;;;;;;;7.40;5.70;;;;;;;12.70;100.00;99419.75;436206;1256;138944;-61
2023/10/12 21:56:05;;;;;;;9.90;5.20;;;;;;;12.69;100.00;99423.51;437273;1255;140019;-61
2023/10/12 22:06:15;;;;;;;7.80;4.70;;;;;;;12.68;100.00;99425.14;435871;1256;139003;-61
2023/10/12 22:16:31;;;;;;;7.90;5.10;;;;;;;12.66;100.00;99421.33;435635;1256;140911;-61
2023/10/12 22:26:40;;;;;;;8.20;4.10;;;;;;;12.61;100.00;99417.63;436183;1253;138912;-61
2023/10/12 22:36:49;;;;;;;9.00;4.50;;;;;;;12.54;100.00;99414.23;435621;1254;139386;-61
2023/10/12 22:46:57;;;;;;;6.90;4.10;;;;;;;12.36;100.00;99422.94;435764;1251;139706;-60
2023/10/12 22:57:05;;;;;;;7.50;4.30;;;;;;;12.24;100.00;99425.61;435657;1256;139106;-61
2023/10/12 23:07:09;;;;;;;;;;;;;;;12.25;100.00;99430.65;436633;1255;139057;-61
2023/10/12 23:17:20;;;;;;;7.00;3.60;;;;;;;12.27;100.00;99456.45;436259;1254;126071;-61
2023/10/12 23:27:29;;;;;;;6.10;4.10;;;;;;;12.28;100.00;99449.29;436264;1253;139225;-62
2023/10/12 23:37:57;;;;;;;6.70;3.90;;;;;;;12.27;100.00;99456.95;435714;1254;139814;-62
2023/10/12 23:48:09;;;;;;;7.50;3.80;;;;;;;12.24;100.00;99464.00;436310;1253;139310;-61
2023/10/12 23:58:15;;;;;;;7.70;4.10;;;;;;;12.16;100.00;99457.04;436210;1256;140726;-61
